Terminal Aerodrome Forecast
Issued by NWS

Home | Current Version | Previous Version | Graphics & Text | Print | Product List | Glossary On
Versions: 1 2 3 4 5 6 7 8 9 10 11 12 13 14 15 16 17 18 19 20 21 22 23 24 25 26 27 28 29 30 31 32 33 34
000
FTUS43 KLOT 251558 AAC
TAFDPA
TAF AMD
KDPA 251558Z 2516/2612 22013G22KT 6SM -RA SCT015 BKN040
      TEMPO 2516/2517 5SM -RA BKN015
     FM251800 23016G25KT P6SM BKN030 BKN250
     FM260200 19014G20KT P6SM BKN250
     FM260900 19012KT P6SM SCT040 BKN150 PROB30 2609/2612 SHRA=

USA.gov is the U.S. government's official web portal to all federal, state and local government web resources and services.